Time,TemperatureF,DewpointF,PressureIn,WindDirection,WindDirectionDegrees,WindSpeedMPH,WindSpeedGustMPH,Humidity,HourlyPrecipIn,Conditions,Clouds,dailyrainin,SolarRadiationWatts/m^2,SoftwareType,DateUTC
2013-09-23 00:00:00,43.0,40.0,-100.00,SE,135,0.0,-999.0,86,-99.99,,,-99.99,0.000000,,2013-09-23 04:00:00,
2013-09-23 00:43:00,43.0,40.0,-100.00,SE,135,0.0,-999.0,86,-99.99,,,-99.99,0.000000,,2013-09-23 04:43:00,
2013-09-23 00:54:00,43.0,40.0,-100.00,SE,135,0.0,-999.0,86,-99.99,,,-99.99,0.000000,,2013-09-23 04:54:00,
2013-09-23 01:00:00,41.0,38.0,-100.00,SE,135,0.0,-999.0,89,-99.99,,,-99.99,0.000000,,2013-09-23 05:00:00,
2013-09-23 01:43:00,41.0,38.0,-100.00,SE,135,0.0,-999.0,89,-99.99,,,-99.99,0.000000,,2013-09-23 05:43:00,
2013-09-23 01:53:00,41.0,38.0,-100.00,SE,135,0.0,-999.0,89,-99.99,,,-99.99,0.000000,,2013-09-23 05:53:00,
2013-09-23 02:00:00,43.0,41.0,-100.00,NW,315,0.0,-999.0,91,-99.99,,,-99.99,0.000000,,2013-09-23 06:00:00,
2013-09-23 02:42:00,43.0,41.0,-100.00,NW,315,0.0,-999.0,91,-99.99,,,-99.99,0.000000,,2013-09-23 06:42:00,
2013-09-23 02:52:00,43.0,41.0,-100.00,NW,315,0.0,-999.0,91,-99.99,,,-99.99,0.000000,,2013-09-23 06:52:00,
2013-09-23 03:00:00,45.0,43.0,-100.00,ENE,67,0.0,-999.0,91,-99.99,,,-99.99,0.000000,,2013-09-23 07:00:00,
2013-09-23 03:42:00,45.0,43.0,-100.00,ENE,67,0.0,-999.0,91,-99.99,,,-99.99,0.000000,,2013-09-23 07:42:00,
2013-09-23 03:52:00,45.0,43.0,-100.00,ENE,67,0.0,-999.0,91,-99.99,,,-99.99,0.000000,,2013-09-23 07:52:00,
2013-09-23 04:00:00,45.0,42.0,-100.00,NNE,22,0.0,-999.0,91,-99.99,,,-99.99,0.000000,,2013-09-23 08:00:00,
2013-09-23 04:42:00,45.0,42.0,-100.00,NNE,22,0.0,-999.0,91,-99.99,,,-99.99,0.000000,,2013-09-23 08:42:00,
2013-09-23 04:52:00,45.0,42.0,-100.00,NNE,22,0.0,-999.0,91,-99.99,,,-99.99,0.000000,,2013-09-23 08:52:00,
2013-09-23 05:00:00,46.0,43.0,-100.00,NE,45,0.0,-999.0,91,-99.99,,,-99.99,0.000000,,2013-09-23 09:00:00,
2013-09-23 05:43:00,46.0,43.0,-100.00,NE,45,0.0,-999.0,91,-99.99,,,-99.99,0.000000,,2013-09-23 09:43:00,
2013-09-23 05:53:00,46.0,43.0,-100.00,NE,45,0.0,-999.0,91,-99.99,,,-99.99,0.000000,,2013-09-23 09:53:00,
2013-09-23 06:00:00,46.0,42.0,-100.00,ENE,67,0.0,-999.0,87,-99.99,,,-99.99,0.000000,,2013-09-23 10:00:00,
2013-09-23 06:43:00,46.0,42.0,-100.00,ENE,67,0.0,-999.0,87,-99.99,,,-99.99,0.000000,,2013-09-23 10:43:00,
2013-09-23 06:53:00,46.0,42.0,-100.00,ENE,67,0.0,-999.0,87,-99.99,,,-99.99,0.000000,,2013-09-23 10:53:00,
2013-09-23 07:00:00,46.0,42.0,-100.00,NE,45,0.0,-999.0,84,-99.99,,,-99.99,0.000000,,2013-09-23 11:00:00,
2013-09-23 07:42:00,46.0,42.0,-100.00,NE,45,0.0,-999.0,84,-99.99,,,-99.99,0.000000,,2013-09-23 11:42:00,
2013-09-23 07:52:00,46.0,42.0,-100.00,NE,45,0.0,-999.0,84,-99.99,,,-99.99,0.000000,,2013-09-23 11:52:00,
2013-09-23 08:00:00,46.0,42.0,-100.00,ENE,67,0.0,-999.0,84,-99.99,,,-99.99,8.120000,,2013-09-23 12:00:00,
2013-09-23 08:42:00,46.0,42.0,-100.00,ENE,67,0.0,-999.0,84,-99.99,,,-99.99,8.120000,,2013-09-23 12:42:00,
2013-09-23 08:52:00,46.0,42.0,-100.00,ENE,67,0.0,-999.0,84,-99.99,,,-99.99,8.120000,,2013-09-23 12:52:00,
2013-09-23 09:00:00,47.0,43.0,-100.00,ENE,67,0.0,-999.0,83,-99.99,,,-99.99,66.120003,,2013-09-23 13:00:00,
2013-09-23 09:42:00,47.0,43.0,-100.00,ENE,67,0.0,-999.0,83,-99.99,,,-99.99,66.120003,,2013-09-23 13:42:00,
2013-09-23 09:52:00,47.0,43.0,-100.00,ENE,67,0.0,-999.0,83,-99.99,,,-99.99,66.120003,,2013-09-23 13:52:00,
2013-09-23 10:00:00,50.0,42.0,-100.00,East,90,3.0,-999.0,75,-99.99,,,-99.99,179.800003,,2013-09-23 14:00:00,
2013-09-23 10:43:00,50.0,42.0,-100.00,East,90,3.0,-999.0,75,-99.99,,,-99.99,179.800003,,2013-09-23 14:43:00,
2013-09-23 10:52:00,50.0,42.0,-100.00,East,90,3.0,-999.0,75,-99.99,,,-99.99,179.800003,,2013-09-23 14:52:00,
2013-09-23 11:00:00,54.0,43.0,-100.00,East,90,4.0,-999.0,67,-99.99,,,-99.99,407.160004,,2013-09-23 15:00:00,
2013-09-23 11:43:00,54.0,43.0,-100.00,East,90,4.0,-999.0,67,-99.99,,,-99.99,407.160004,,2013-09-23 15:43:00,
2013-09-23 11:54:00,54.0,43.0,-100.00,East,90,4.0,-999.0,67,-99.99,,,-99.99,407.160004,,2013-09-23 15:54:00,
2013-09-23 12:00:00,57.0,43.0,-100.00,East,90,4.0,-999.0,60,-99.99,,,-99.99,524.320007,,2013-09-23 16:00:00,
2013-09-23 12:43:00,57.0,43.0,-100.00,East,90,4.0,-999.0,60,-99.99,,,-99.99,524.320007,,2013-09-23 16:43:00,
2013-09-23 12:53:00,57.0,43.0,-100.00,East,90,4.0,-999.0,60,-99.99,,,-99.99,524.320007,,2013-09-23 16:53:00,
2013-09-23 13:00:00,59.0,42.0,-100.00,East,90,3.0,-999.0,54,-99.99,,,-99.99,532.440002,,2013-09-23 17:00:00,
2013-09-23 13:42:00,59.0,42.0,-100.00,East,90,3.0,-999.0,54,-99.99,,,-99.99,532.440002,,2013-09-23 17:42:00,
2013-09-23 13:52:00,59.0,42.0,-100.00,East,90,3.0,-999.0,54,-99.99,,,-99.99,532.440002,,2013-09-23 17:52:00,
2013-09-23 14:00:00,59.0,42.0,-100.00,East,90,3.0,-999.0,53,-99.99,,,-99.99,312.040009,,2013-09-23 18:00:00,
2013-09-23 14:42:00,59.0,42.0,-100.00,East,90,3.0,-999.0,53,-99.99,,,-99.99,312.040009,,2013-09-23 18:42:00,
2013-09-23 14:52:00,59.0,42.0,-100.00,East,90,3.0,-999.0,53,-99.99,,,-99.99,312.040009,,2013-09-23 18:52:00,
2013-09-23 15:00:00,61.0,42.0,-100.00,SE,135,3.0,-999.0,49,-99.99,,,-99.99,491.839996,,2013-09-23 19:00:00,
2013-09-23 15:42:00,61.0,42.0,-100.00,SE,135,3.0,-999.0,49,-99.99,,,-99.99,491.839996,,2013-09-23 19:42:00,
2013-09-23 15:53:00,61.0,42.0,-100.00,SE,135,3.0,-999.0,49,-99.99,,,-99.99,491.839996,,2013-09-23 19:53:00,
2013-09-23 16:00:00,61.0,42.0,-100.00,ESE,112,2.0,-999.0,50,-99.99,,,-99.99,554.479980,,2013-09-23 20:00:00,
2013-09-23 16:42:00,61.0,42.0,-100.00,ESE,112,2.0,-999.0,50,-99.99,,,-99.99,554.479980,,2013-09-23 20:42:00,
2013-09-23 16:52:00,61.0,42.0,-100.00,ESE,112,2.0,-999.0,50,-99.99,,,-99.99,554.479980,,2013-09-23 20:52:00,
2013-09-23 17:00:00,62.0,42.0,-100.00,ESE,112,2.0,-999.0,48,-99.99,,,-99.99,464.000000,,2013-09-23 21:00:00,
2013-09-23 17:44:00,62.0,42.0,-100.00,ESE,112,2.0,-999.0,48,-99.99,,,-99.99,464.000000,,2013-09-23 21:44:00,
2013-09-23 17:54:00,62.0,42.0,-100.00,ESE,112,2.0,-999.0,48,-99.99,,,-99.99,464.000000,,2013-09-23 21:54:00,
2013-09-23 18:00:00,61.0,42.0,-100.00,ESE,112,2.0,-999.0,48,-99.99,,,-99.99,317.839996,,2013-09-23 22:00:00,
2013-09-23 18:43:00,61.0,42.0,-100.00,ESE,112,2.0,-999.0,48,-99.99,,,-99.99,317.839996,,2013-09-23 22:43:00,
2013-09-23 18:54:00,61.0,42.0,-100.00,ESE,112,2.0,-999.0,48,-99.99,,,-99.99,317.839996,,2013-09-23 22:54:00,
2013-09-23 19:00:00,58.0,42.0,-100.00,SE,135,6.0,-999.0,55,-99.99,,,-99.99,141.520004,,2013-09-23 23:00:00,
2013-09-23 19:42:00,58.0,42.0,-100.00,SE,135,6.0,-999.0,55,-99.99,,,-99.99,141.520004,,2013-09-23 23:42:00,
2013-09-23 19:54:00,58.0,42.0,-100.00,SE,135,6.0,-999.0,55,-99.99,,,-99.99,141.520004,,2013-09-23 23:54:00,
2013-09-23 20:00:00,53.0,44.0,-100.00,SE,135,2.0,-999.0,72,-99.99,,,-99.99,11.600000,,2013-09-24 00:00:00,
2013-09-23 20:43:00,53.0,44.0,-100.00,SE,135,2.0,-999.0,72,-99.99,,,-99.99,11.600000,,2013-09-24 00:43:00,
2013-09-23 20:52:00,53.0,44.0,-100.00,SE,135,2.0,-999.0,72,-99.99,,,-99.99,11.600000,,2013-09-24 00:52:00,
2013-09-23 21:00:00,46.0,42.0,-100.00,SE,135,0.0,-999.0,83,-99.99,,,-99.99,0.000000,,2013-09-24 01:00:00,
2013-09-23 21:43:00,46.0,42.0,-100.00,SE,135,0.0,-999.0,83,-99.99,,,-99.99,0.000000,,2013-09-24 01:43:00,
2013-09-23 21:52:00,46.0,42.0,-100.00,SE,135,0.0,-999.0,83,-99.99,,,-99.99,0.000000,,2013-09-24 01:52:00,
2013-09-23 22:00:00,43.0,40.0,-100.00,ESE,112,0.0,-999.0,88,-99.99,,,-99.99,0.000000,,2013-09-24 02:00:00,
2013-09-23 22:42:00,43.0,40.0,-100.00,ESE,112,0.0,-999.0,88,-99.99,,,-99.99,0.000000,,2013-09-24 02:42:00,
2013-09-23 22:52:00,43.0,40.0,-100.00,ESE,112,0.0,-999.0,88,-99.99,,,-99.99,0.000000,,2013-09-24 02:52:00,
2013-09-23 23:00:00,44.0,41.0,-100.00,SSE,157,1.0,-999.0,90,-99.99,,,-99.99,0.000000,,2013-09-24 03:00:00,
2013-09-23 23:45:00,44.0,41.0,-100.00,SSE,157,1.0,-999.0,90,-99.99,,,-99.99,0.000000,,2013-09-24 03:45:00,
2013-09-23 23:55:00,44.0,41.0,-100.00,SSE,157,1.0,-999.0,90,-99.99,,,-99.99,0.000000,,2013-09-24 03:55:00,